sensor_id;sensor_type;location;lat;lon;timestamp;P1;durP1;ratioP1;P2;durP2;ratioP2
67941;SDS011;54731;42.600;23.476;2022-12-10T00:02:19;11.80;;;3.80;;
67941;SDS011;54731;42.600;23.476;2022-12-10T00:04:44;9.20;;;4.73;;
67941;SDS011;54731;42.600;23.476;2022-12-10T00:07:09;19.75;;;5.07;;
67941;SDS011;54731;42.600;23.476;2022-12-10T00:09:34;10.80;;;3.90;;
67941;SDS011;54731;42.600;23.476;2022-12-10T00:12:02;12.43;;;4.25;;
67941;SDS011;54731;42.600;23.476;2022-12-10T00:14:28;9.60;;;2.85;;
67941;SDS011;54731;42.600;23.476;2022-12-10T00:16:53;8.20;;;3.30;;
67941;SDS011;54731;42.600;23.476;2022-12-10T00:19:18;8.57;;;3.43;;
67941;SDS011;54731;42.600;23.476;2022-12-10T00:21:43;17.40;;;5.40;;
67941;SDS011;54731;42.600;23.476;2022-12-10T00:24:09;10.93;;;4.13;;
67941;SDS011;54731;42.600;23.476;2022-12-10T00:26:36;9.75;;;3.15;;
67941;SDS011;54731;42.600;23.476;2022-12-10T00:29:03;9.50;;;3.47;;
67941;SDS011;54731;42.600;23.476;2022-12-10T00:31:31;11.55;;;3.38;;
67941;SDS011;54731;42.600;23.476;2022-12-10T00:33:59;7.53;;;3.08;;
67941;SDS011;54731;42.600;23.476;2022-12-10T00:36:30;8.18;;;3.25;;
67941;SDS011;54731;42.600;23.476;2022-12-10T00:38:58;12.45;;;3.40;;
67941;SDS011;54731;42.600;23.476;2022-12-10T00:41:24;8.83;;;3.57;;
67941;SDS011;54731;42.600;23.476;2022-12-10T00:43:49;8.60;;;2.80;;
67941;SDS011;54731;42.600;23.476;2022-12-10T00:46:15;8.37;;;3.20;;
67941;SDS011;54731;42.600;23.476;2022-12-10T00:48:42;11.65;;;3.92;;
67941;SDS011;54731;42.600;23.476;2022-12-10T00:51:10;8.95;;;3.45;;
67941;SDS011;54731;42.600;23.476;2022-12-10T00:53:38;10.48;;;4.10;;
67941;SDS011;54731;42.600;23.476;2022-12-10T00:56:04;10.88;;;3.92;;
67941;SDS011;54731;42.600;23.476;2022-12-10T00:58:31;13.73;;;4.97;;
67941;SDS011;54731;42.600;23.476;2022-12-10T01:03:34;9.95;;;3.90;;
67941;SDS011;54731;42.600;23.476;2022-12-10T01:06:09;9.87;;;3.73;;
67941;SDS011;54731;42.600;23.476;2022-12-10T01:08:36;13.23;;;5.03;;
67941;SDS011;54731;42.600;23.476;2022-12-10T01:11:02;10.70;;;3.75;;
67941;SDS011;54731;42.600;23.476;2022-12-10T01:13:27;7.50;;;3.53;;
67941;SDS011;54731;42.600;23.476;2022-12-10T01:15:52;11.63;;;4.07;;
67941;SDS011;54731;42.600;23.476;2022-12-10T01:18:18;9.33;;;3.93;;
67941;SDS011;54731;42.600;23.476;2022-12-10T01:20:43;11.00;;;3.63;;
67941;SDS011;54731;42.600;23.476;2022-12-10T01:23:08;9.87;;;3.40;;
67941;SDS011;54731;42.600;23.476;2022-12-10T01:25:33;13.67;;;3.70;;
67941;SDS011;54731;42.600;23.476;2022-12-10T01:27:59;9.40;;;3.50;;
67941;SDS011;54731;42.600;23.476;2022-12-10T01:30:24;8.63;;;3.20;;
67941;SDS011;54731;42.600;23.476;2022-12-10T01:32:49;7.90;;;3.23;;
67941;SDS011;54731;42.600;23.476;2022-12-10T01:35:15;10.20;;;3.10;;
67941;SDS011;54731;42.600;23.476;2022-12-10T01:37:40;29.85;;;10.27;;
67941;SDS011;54731;42.600;23.476;2022-12-10T01:40:05;21.50;;;7.33;;
67941;SDS011;54731;42.600;23.476;2022-12-10T01:42:31;7.93;;;3.75;;
67941;SDS011;54731;42.600;23.476;2022-12-10T01:44:58;10.17;;;3.37;;
67941;SDS011;54731;42.600;23.476;2022-12-10T01:47:29;10.30;;;3.20;;
67941;SDS011;54731;42.600;23.476;2022-12-10T01:49:55;9.25;;;3.17;;
67941;SDS011;54731;42.600;23.476;2022-12-10T01:52:22;6.70;;;3.20;;
67941;SDS011;54731;42.600;23.476;2022-12-10T01:54:47;9.27;;;3.67;;
67941;SDS011;54731;42.600;23.476;2022-12-10T01:57:17;9.67;;;2.97;;
67941;SDS011;54731;42.600;23.476;2022-12-10T01:59:43;13.27;;;3.42;;
67941;SDS011;54731;42.600;23.476;2022-12-10T02:07:45;7.82;;;3.53;;
67941;SDS011;54731;42.600;23.476;2022-12-10T02:10:33;9.63;;;3.42;;
67941;SDS011;54731;42.600;23.476;2022-12-10T02:15:36;9.80;;;2.63;;
67941;SDS011;54731;42.600;23.476;2022-12-10T02:18:29;12.55;;;6.53;;
67941;SDS011;54731;42.600;23.476;2022-12-10T02:21:00;19.92;;;6.70;;
67941;SDS011;54731;42.600;23.476;2022-12-10T02:23:35;16.45;;;5.30;;
67941;SDS011;54731;42.600;23.476;2022-12-10T02:31:31;16.80;;;6.22;;
67941;SDS011;54731;42.600;23.476;2022-12-10T02:33:59;22.85;;;7.03;;
67941;SDS011;54731;42.600;23.476;2022-12-10T02:36:27;24.65;;;7.40;;
67941;SDS011;54731;42.600;23.476;2022-12-10T02:38:55;21.73;;;7.65;;
67941;SDS011;54731;42.600;23.476;2022-12-10T02:41:25;31.27;;;8.00;;
67941;SDS011;54731;42.600;23.476;2022-12-10T02:43:54;20.85;;;8.13;;
67941;SDS011;54731;42.600;23.476;2022-12-10T02:46:23;21.75;;;8.18;;
67941;SDS011;54731;42.600;23.476;2022-12-10T02:48:50;14.57;;;6.82;;
67941;SDS011;54731;42.600;23.476;2022-12-10T02:51:16;19.80;;;4.90;;
67941;SDS011;54731;42.600;23.476;2022-12-10T02:53:45;9.03;;;4.07;;
67941;SDS011;54731;42.600;23.476;2022-12-10T02:56:21;14.10;;;4.32;;
67941;SDS011;54731;42.600;23.476;2022-12-10T03:02:06;13.93;;;3.90;;
67941;SDS011;54731;42.600;23.476;2022-12-10T03:07:10;15.00;;;5.33;;
67941;SDS011;54731;42.600;23.476;2022-12-10T03:09:55;15.43;;;5.40;;
67941;SDS011;54731;42.600;23.476;2022-12-10T03:12:46;7.82;;;4.95;;
67941;SDS011;54731;42.600;23.476;2022-12-10T03:15:14;11.43;;;5.15;;
67941;SDS011;54731;42.600;23.476;2022-12-10T03:17:42;18.50;;;5.70;;
67941;SDS011;54731;42.600;23.476;2022-12-10T03:20:11;20.93;;;8.07;;
67941;SDS011;54731;42.600;23.476;2022-12-10T03:22:39;17.20;;;7.30;;
67941;SDS011;54731;42.600;23.476;2022-12-10T03:25:08;21.30;;;8.55;;
67941;SDS011;54731;42.600;23.476;2022-12-10T03:27:36;33.75;;;12.70;;
67941;SDS011;54731;42.600;23.476;2022-12-10T03:30:05;51.97;;;18.33;;
67941;SDS011;54731;42.600;23.476;2022-12-10T03:32:31;25.10;;;9.80;;
67941;SDS011;54731;42.600;23.476;2022-12-10T03:34:58;21.30;;;7.43;;
67941;SDS011;54731;42.600;23.476;2022-12-10T03:37:25;14.35;;;5.80;;
67941;SDS011;54731;42.600;23.476;2022-12-10T03:39:52;17.02;;;6.53;;
67941;SDS011;54731;42.600;23.476;2022-12-10T03:42:17;13.33;;;5.63;;
67941;SDS011;54731;42.600;23.476;2022-12-10T03:44:43;20.23;;;7.97;;
67941;SDS011;54731;42.600;23.476;2022-12-10T03:47:10;16.20;;;7.50;;
67941;SDS011;54731;42.600;23.476;2022-12-10T03:49:38;21.08;;;6.93;;
67941;SDS011;54731;42.600;23.476;2022-12-10T03:52:04;20.17;;;7.83;;
67941;SDS011;54731;42.600;23.476;2022-12-10T03:54:29;14.75;;;5.97;;
67941;SDS011;54731;42.600;23.476;2022-12-10T03:56:54;14.23;;;5.17;;
67941;SDS011;54731;42.600;23.476;2022-12-10T03:59:20;19.87;;;5.43;;
67941;SDS011;54731;42.600;23.476;2022-12-10T04:01:45;15.00;;;5.40;;
67941;SDS011;54731;42.600;23.476;2022-12-10T04:04:12;15.27;;;5.82;;
67941;SDS011;54731;42.600;23.476;2022-12-10T04:06:38;6.37;;;2.33;;
67941;SDS011;54731;42.600;23.476;2022-12-10T04:09:04;10.15;;;3.67;;
67941;SDS011;54731;42.600;23.476;2022-12-10T04:11:29;14.47;;;4.53;;
67941;SDS011;54731;42.600;23.476;2022-12-10T04:13:55;19.03;;;7.10;;
67941;SDS011;54731;42.600;23.476;2022-12-10T04:16:20;24.30;;;8.73;;
67941;SDS011;54731;42.600;23.476;2022-12-10T04:18:46;13.50;;;6.23;;
67941;SDS011;54731;42.600;23.476;2022-12-10T04:21:11;6.20;;;2.50;;
67941;SDS011;54731;42.600;23.476;2022-12-10T04:23:37;6.90;;;1.65;;
67941;SDS011;54731;42.600;23.476;2022-12-10T04:26:02;7.53;;;2.10;;
67941;SDS011;54731;42.600;23.476;2022-12-10T04:28:27;8.10;;;1.93;;
67941;SDS011;54731;42.600;23.476;2022-12-10T04:30:53;5.37;;;1.40;;
67941;SDS011;54731;42.600;23.476;2022-12-10T04:33:18;5.87;;;1.67;;
67941;SDS011;54731;42.600;23.476;2022-12-10T04:35:43;8.70;;;2.70;;
67941;SDS011;54731;42.600;23.476;2022-12-10T04:38:09;4.80;;;1.60;;
67941;SDS011;54731;42.600;23.476;2022-12-10T04:40:34;4.50;;;1.90;;
67941;SDS011;54731;42.600;23.476;2022-12-10T04:42:59;4.32;;;1.75;;
67941;SDS011;54731;42.600;23.476;2022-12-10T04:45:25;8.02;;;1.80;;
67941;SDS011;54731;42.600;23.476;2022-12-10T04:47:50;6.53;;;1.60;;
67941;SDS011;54731;42.600;23.476;2022-12-10T04:50:15;6.30;;;2.13;;
67941;SDS011;54731;42.600;23.476;2022-12-10T04:52:41;5.83;;;2.30;;
67941;SDS011;54731;42.600;23.476;2022-12-10T04:55:06;11.93;;;2.10;;
67941;SDS011;54731;42.600;23.476;2022-12-10T04:57:32;9.23;;;3.13;;
67941;SDS011;54731;42.600;23.476;2022-12-10T04:59:57;9.52;;;2.38;;
67941;SDS011;54731;42.600;23.476;2022-12-10T05:02:22;9.53;;;3.70;;
67941;SDS011;54731;42.600;23.476;2022-12-10T05:04:48;10.90;;;2.60;;
67941;SDS011;54731;42.600;23.476;2022-12-10T05:07:13;9.38;;;2.40;;
67941;SDS011;54731;42.600;23.476;2022-12-10T05:09:39;5.60;;;1.53;;
67941;SDS011;54731;42.600;23.476;2022-12-10T05:12:04;6.13;;;1.70;;
67941;SDS011;54731;42.600;23.476;2022-12-10T05:14:30;5.70;;;1.70;;
67941;SDS011;54731;42.600;23.476;2022-12-10T05:16:55;4.23;;;1.50;;
67941;SDS011;54731;42.600;23.476;2022-12-10T05:19:20;8.20;;;1.57;;
67941;SDS011;54731;42.600;23.476;2022-12-10T05:21:46;6.40;;;1.63;;
67941;SDS011;54731;42.600;23.476;2022-12-10T05:24:12;4.30;;;1.38;;
67941;SDS011;54731;42.600;23.476;2022-12-10T05:26:38;8.43;;;1.80;;
67941;SDS011;54731;42.600;23.476;2022-12-10T05:29:03;5.43;;;1.50;;
67941;SDS011;54731;42.600;23.476;2022-12-10T05:31:29;6.57;;;1.80;;
67941;SDS011;54731;42.600;23.476;2022-12-10T05:33:55;3.27;;;1.77;;
67941;SDS011;54731;42.600;23.476;2022-12-10T05:36:23;3.45;;;1.48;;
67941;SDS011;54731;42.600;23.476;2022-12-10T05:38:51;8.35;;;1.73;;
67941;SDS011;54731;42.600;23.476;2022-12-10T05:41:18;5.40;;;1.85;;
67941;SDS011;54731;42.600;23.476;2022-12-10T05:43:45;7.70;;;2.35;;
67941;SDS011;54731;42.600;23.476;2022-12-10T05:46:16;4.17;;;1.17;;
67941;SDS011;54731;42.600;23.476;2022-12-10T05:48:49;6.55;;;1.67;;
67941;SDS011;54731;42.600;23.476;2022-12-10T05:51:16;9.55;;;1.80;;
67941;SDS011;54731;42.600;23.476;2022-12-10T05:53:43;5.22;;;1.90;;
67941;SDS011;54731;42.600;23.476;2022-12-10T05:56:09;6.03;;;2.27;;
67941;SDS011;54731;42.600;23.476;2022-12-10T05:58:36;5.75;;;2.88;;
67941;SDS011;54731;42.600;23.476;2022-12-10T06:01:09;8.32;;;2.47;;
67941;SDS011;54731;42.600;23.476;2022-12-10T06:03:39;6.53;;;2.13;;
67941;SDS011;54731;42.600;23.476;2022-12-10T06:06:05;8.40;;;2.55;;
67941;SDS011;54731;42.600;23.476;2022-12-10T06:08:30;7.83;;;2.83;;
67941;SDS011;54731;42.600;23.476;2022-12-10T06:11:00;6.05;;;3.50;;
67941;SDS011;54731;42.600;23.476;2022-12-10T06:13:28;5.70;;;2.13;;
67941;SDS011;54731;42.600;23.476;2022-12-10T06:15:54;12.23;;;2.77;;
67941;SDS011;54731;42.600;23.476;2022-12-10T06:18:20;12.57;;;4.80;;
67941;SDS011;54731;42.600;23.476;2022-12-10T06:20:45;6.40;;;2.17;;
67941;SDS011;54731;42.600;23.476;2022-12-10T06:23:10;7.40;;;2.57;;
67941;SDS011;54731;42.600;23.476;2022-12-10T06:25:37;6.20;;;2.33;;
67941;SDS011;54731;42.600;23.476;2022-12-10T06:28:03;9.40;;;2.30;;
67941;SDS011;54731;42.600;23.476;2022-12-10T06:30:29;5.05;;;2.22;;
67941;SDS011;54731;42.600;23.476;2022-12-10T06:32:54;11.03;;;2.77;;
67941;SDS011;54731;42.600;23.476;2022-12-10T06:35:20;12.20;;;3.30;;
67941;SDS011;54731;42.600;23.476;2022-12-10T06:37:45;9.83;;;2.47;;
67941;SDS011;54731;42.600;23.476;2022-12-10T06:40:10;5.77;;;1.90;;
67941;SDS011;54731;42.600;23.476;2022-12-10T06:42:36;9.02;;;2.88;;
67941;SDS011;54731;42.600;23.476;2022-12-10T06:45:01;5.67;;;2.00;;
67941;SDS011;54731;42.600;23.476;2022-12-10T06:47:27;6.77;;;2.20;;
67941;SDS011;54731;42.600;23.476;2022-12-10T06:49:52;10.93;;;3.47;;
67941;SDS011;54731;42.600;23.476;2022-12-10T06:52:18;12.10;;;4.30;;
67941;SDS011;54731;42.600;23.476;2022-12-10T06:54:43;102.97;;;49.40;;
67941;SDS011;54731;42.600;23.476;2022-12-10T06:57:08;46.47;;;27.10;;
67941;SDS011;54731;42.600;23.476;2022-12-10T06:59:34;11.10;;;4.67;;
67941;SDS011;54731;42.600;23.476;2022-12-10T07:01:59;4.23;;;1.90;;
67941;SDS011;54731;42.600;23.476;2022-12-10T07:04:24;10.40;;;4.43;;
67941;SDS011;54731;42.600;23.476;2022-12-10T07:06:50;6.17;;;3.43;;
67941;SDS011;54731;42.600;23.476;2022-12-10T07:09:15;8.73;;;2.60;;
67941;SDS011;54731;42.600;23.476;2022-12-10T07:11:40;7.13;;;2.77;;
67941;SDS011;54731;42.600;23.476;2022-12-10T07:14:05;10.13;;;4.23;;
67941;SDS011;54731;42.600;23.476;2022-12-10T07:16:31;13.05;;;4.93;;
67941;SDS011;54731;42.600;23.476;2022-12-10T07:18:58;7.87;;;2.90;;
67941;SDS011;54731;42.600;23.476;2022-12-10T07:23:55;6.88;;;1.95;;
67941;SDS011;54731;42.600;23.476;2022-12-10T07:26:22;7.28;;;2.03;;
67941;SDS011;54731;42.600;23.476;2022-12-10T07:28:47;7.10;;;1.60;;
67941;SDS011;54731;42.600;23.476;2022-12-10T07:31:13;5.53;;;2.60;;
67941;SDS011;54731;42.600;23.476;2022-12-10T07:33:38;6.10;;;1.40;;
67941;SDS011;54731;42.600;23.476;2022-12-10T07:36:07;14.55;;;5.82;;
67941;SDS011;54731;42.600;23.476;2022-12-10T07:38:34;9.13;;;2.08;;
67941;SDS011;54731;42.600;23.476;2022-12-10T07:41:10;10.03;;;2.73;;
67941;SDS011;54731;42.600;23.476;2022-12-10T07:43:37;13.55;;;4.55;;
67941;SDS011;54731;42.600;23.476;2022-12-10T07:46:13;2.27;;;1.20;;
67941;SDS011;54731;42.600;23.476;2022-12-10T07:48:46;7.07;;;1.90;;
67941;SDS011;54731;42.600;23.476;2022-12-10T07:51:12;5.63;;;1.50;;
67941;SDS011;54731;42.600;23.476;2022-12-10T07:53:39;4.50;;;2.22;;
67941;SDS011;54731;42.600;23.476;2022-12-10T07:56:04;6.97;;;3.83;;
67941;SDS011;54731;42.600;23.476;2022-12-10T07:58:30;7.00;;;1.75;;
67941;SDS011;54731;42.600;23.476;2022-12-10T08:00:56;5.13;;;1.95;;
67941;SDS011;54731;42.600;23.476;2022-12-10T08:03:22;4.27;;;1.73;;
67941;SDS011;54731;42.600;23.476;2022-12-10T08:05:47;6.03;;;1.20;;
67941;SDS011;54731;42.600;23.476;2022-12-10T08:08:12;5.80;;;1.37;;
67941;SDS011;54731;42.600;23.476;2022-12-10T08:10:38;21.47;;;13.10;;
67941;SDS011;54731;42.600;23.476;2022-12-10T08:13:04;22.85;;;9.57;;
67941;SDS011;54731;42.600;23.476;2022-12-10T08:15:30;9.63;;;4.20;;
67941;SDS011;54731;42.600;23.476;2022-12-10T08:17:56;4.32;;;1.50;;
67941;SDS011;54731;42.600;23.476;2022-12-10T08:20:22;24.07;;;8.83;;
67941;SDS011;54731;42.600;23.476;2022-12-10T08:22:48;22.05;;;9.40;;
67941;SDS011;54731;42.600;23.476;2022-12-10T08:25:13;14.47;;;7.47;;
67941;SDS011;54731;42.600;23.476;2022-12-10T08:27:39;15.37;;;6.83;;
67941;SDS011;54731;42.600;23.476;2022-12-10T08:30:04;4.63;;;1.80;;
67941;SDS011;54731;42.600;23.476;2022-12-10T08:32:30;21.42;;;7.60;;
67941;SDS011;54731;42.600;23.476;2022-12-10T08:34:56;8.00;;;4.27;;
67941;SDS011;54731;42.600;23.476;2022-12-10T08:37:21;4.67;;;1.77;;
67941;SDS011;54731;42.600;23.476;2022-12-10T08:39:46;5.75;;;1.63;;
67941;SDS011;54731;42.600;23.476;2022-12-10T08:42:12;48.83;;;14.88;;
67941;SDS011;54731;42.600;23.476;2022-12-10T08:44:37;22.90;;;7.57;;
67941;SDS011;54731;42.600;23.476;2022-12-10T08:47:02;3.77;;;2.00;;
67941;SDS011;54731;42.600;23.476;2022-12-10T08:49:28;5.13;;;1.90;;
67941;SDS011;54731;42.600;23.476;2022-12-10T08:51:53;5.63;;;1.73;;
67941;SDS011;54731;42.600;23.476;2022-12-10T08:54:19;10.77;;;3.70;;
67941;SDS011;54731;42.600;23.476;2022-12-10T08:56:44;5.60;;;2.10;;
67941;SDS011;54731;42.600;23.476;2022-12-10T08:59:09;7.30;;;3.27;;
67941;SDS011;54731;42.600;23.476;2022-12-10T09:01:35;10.03;;;2.50;;
67941;SDS011;54731;42.600;23.476;2022-12-10T09:04:00;9.13;;;3.17;;
67941;SDS011;54731;42.600;23.476;2022-12-10T09:06:25;5.73;;;2.80;;
67941;SDS011;54731;42.600;23.476;2022-12-10T09:08:51;7.13;;;4.18;;
67941;SDS011;54731;42.600;23.476;2022-12-10T09:11:20;9.00;;;6.37;;
67941;SDS011;54731;42.600;23.476;2022-12-10T09:13:56;8.95;;;5.25;;
67941;SDS011;54731;42.600;23.476;2022-12-10T09:16:26;8.27;;;3.07;;
67941;SDS011;54731;42.600;23.476;2022-12-10T09:18:53;16.05;;;13.13;;
67941;SDS011;54731;42.600;23.476;2022-12-10T09:21:18;8.87;;;3.67;;
67941;SDS011;54731;42.600;23.476;2022-12-10T09:23:44;6.15;;;2.53;;
67941;SDS011;54731;42.600;23.476;2022-12-10T09:26:11;6.53;;;2.50;;
67941;SDS011;54731;42.600;23.476;2022-12-10T09:28:38;13.88;;;5.60;;
67941;SDS011;54731;42.600;23.476;2022-12-10T09:31:05;11.43;;;3.50;;
67941;SDS011;54731;42.600;23.476;2022-12-10T09:33:32;9.30;;;4.10;;
67941;SDS011;54731;42.600;23.476;2022-12-10T09:35:57;70.00;;;23.67;;
67941;SDS011;54731;42.600;23.476;2022-12-10T09:38:23;44.80;;;18.17;;
67941;SDS011;54731;42.600;23.476;2022-12-10T09:52:05;28.60;;;15.43;;
67941;SDS011;54731;42.600;23.476;2022-12-10T09:55:09;31.88;;;15.60;;
67941;SDS011;54731;42.600;23.476;2022-12-10T09:57:37;29.23;;;15.20;;
67941;SDS011;54731;42.600;23.476;2022-12-10T10:00:11;32.58;;;17.92;;
67941;SDS011;54731;42.600;23.476;2022-12-10T10:02:46;32.53;;;16.60;;
67941;SDS011;54731;42.600;23.476;2022-12-10T10:05:21;35.55;;;20.08;;
67941;SDS011;54731;42.600;23.476;2022-12-10T10:07:52;44.83;;;22.98;;
67941;SDS011;54731;42.600;23.476;2022-12-10T10:10:21;83.57;;;39.20;;
67941;SDS011;54731;42.600;23.476;2022-12-10T10:12:47;61.30;;;31.05;;
67941;SDS011;54731;42.600;23.476;2022-12-10T10:15:18;53.27;;;28.13;;
67941;SDS011;54731;42.600;23.476;2022-12-10T10:17:49;85.60;;;37.20;;
67941;SDS011;54731;42.600;23.476;2022-12-10T10:20:19;130.43;;;56.17;;
67941;SDS011;54731;42.600;23.476;2022-12-10T10:22:45;96.00;;;44.35;;
67941;SDS011;54731;42.600;23.476;2022-12-10T10:25:18;74.23;;;36.03;;
67941;SDS011;54731;42.600;23.476;2022-12-10T10:27:43;53.05;;;29.27;;
67941;SDS011;54731;42.600;23.476;2022-12-10T10:30:20;200.23;;;72.45;;
67941;SDS011;54731;42.600;23.476;2022-12-10T10:32:51;224.18;;;77.88;;
67941;SDS011;54731;42.600;23.476;2022-12-10T10:35:32;113.70;;;41.10;;
67941;SDS011;54731;42.600;23.476;2022-12-10T10:38:06;338.67;;;124.97;;
67941;SDS011;54731;42.600;23.476;2022-12-10T10:40:44;80.20;;;33.00;;
67941;SDS011;54731;42.600;23.476;2022-12-10T10:43:23;43.65;;;18.15;;
67941;SDS011;54731;42.600;23.476;2022-12-10T10:46:05;22.13;;;12.77;;
67941;SDS011;54731;42.600;23.476;2022-12-10T10:48:42;22.85;;;10.48;;
67941;SDS011;54731;42.600;23.476;2022-12-10T10:54:06;52.60;;;38.33;;
67941;SDS011;54731;42.600;23.476;2022-12-10T10:56:36;26.23;;;16.92;;
67941;SDS011;54731;42.600;23.476;2022-12-10T10:59:06;25.20;;;12.90;;
67941;SDS011;54731;42.600;23.476;2022-12-10T11:01:46;47.92;;;22.17;;
67941;SDS011;54731;42.600;23.476;2022-12-10T11:04:13;27.33;;;13.30;;
67941;SDS011;54731;42.600;23.476;2022-12-10T11:06:55;21.92;;;11.82;;
67941;SDS011;54731;42.600;23.476;2022-12-10T11:09:26;20.55;;;10.82;;
67941;SDS011;54731;42.600;23.476;2022-12-10T11:12:01;21.53;;;12.43;;
67941;SDS011;54731;42.600;23.476;2022-12-10T11:14:48;99.40;;;33.70;;
67941;SDS011;54731;42.600;23.476;2022-12-10T11:17:18;70.70;;;35.70;;
67941;SDS011;54731;42.600;23.476;2022-12-10T11:22:38;38.42;;;19.45;;
67941;SDS011;54731;42.600;23.476;2022-12-10T11:25:19;32.13;;;17.53;;
67941;SDS011;54731;42.600;23.476;2022-12-10T11:28:15;33.80;;;16.77;;
67941;SDS011;54731;42.600;23.476;2022-12-10T11:31:15;20.25;;;11.95;;
67941;SDS011;54731;42.600;23.476;2022-12-10T11:36:57;31.30;;;13.45;;
67941;SDS011;54731;42.600;23.476;2022-12-10T11:44:43;27.25;;;13.23;;
67941;SDS011;54731;42.600;23.476;2022-12-10T11:50:20;39.75;;;18.15;;
67941;SDS011;54731;42.600;23.476;2022-12-10T11:55:32;46.10;;;21.38;;
67941;SDS011;54731;42.600;23.476;2022-12-10T11:58:16;51.47;;;20.77;;
67941;SDS011;54731;42.600;23.476;2022-12-10T12:14:31;57.72;;;26.85;;
67941;SDS011;54731;42.600;23.476;2022-12-10T12:17:19;19.58;;;11.82;;
67941;SDS011;54731;42.600;23.476;2022-12-10T12:19:50;37.07;;;19.43;;
67941;SDS011;54731;42.600;23.476;2022-12-10T12:24:47;44.53;;;18.75;;
67941;SDS011;54731;42.600;23.476;2022-12-10T12:27:24;31.75;;;16.45;;
67941;SDS011;54731;42.600;23.476;2022-12-10T12:30:02;21.42;;;11.10;;
67941;SDS011;54731;42.600;23.476;2022-12-10T12:35:38;21.63;;;11.55;;
67941;SDS011;54731;42.600;23.476;2022-12-10T12:43:37;29.95;;;14.88;;
67941;SDS011;54731;42.600;23.476;2022-12-10T12:46:10;26.63;;;14.43;;
67941;SDS011;54731;42.600;23.476;2022-12-10T12:54:27;49.53;;;27.90;;
67941;SDS011;54731;42.600;23.476;2022-12-10T12:57:01;60.73;;;28.97;;
67941;SDS011;54731;42.600;23.476;2022-12-10T13:04:39;75.30;;;33.97;;
67941;SDS011;54731;42.600;23.476;2022-12-10T13:07:47;63.78;;;28.00;;
67941;SDS011;54731;42.600;23.476;2022-12-10T13:12:32;93.70;;;42.45;;
67941;SDS011;54731;42.600;23.476;2022-12-10T13:15:18;59.60;;;19.17;;
67941;SDS011;54731;42.600;23.476;2022-12-10T13:20:44;28.58;;;14.32;;
67941;SDS011;54731;42.600;23.476;2022-12-10T13:31:05;107.57;;;35.92;;
67941;SDS011;54731;42.600;23.476;2022-12-10T13:36:28;44.53;;;16.00;;
67941;SDS011;54731;42.600;23.476;2022-12-10T13:49:42;92.93;;;34.80;;
67941;SDS011;54731;42.600;23.476;2022-12-10T13:52:23;167.02;;;53.20;;
67941;SDS011;54731;42.600;23.476;2022-12-10T13:54:58;44.10;;;16.80;;
67941;SDS011;54731;42.600;23.476;2022-12-10T13:57:47;16.98;;;6.85;;
67941;SDS011;54731;42.600;23.476;2022-12-10T14:08:22;12.93;;;4.60;;
67941;SDS011;54731;42.600;23.476;2022-12-10T14:10:51;29.63;;;14.53;;
67941;SDS011;54731;42.600;23.476;2022-12-10T14:13:17;12.65;;;5.82;;
67941;SDS011;54731;42.600;23.476;2022-12-10T14:15:55;37.03;;;18.85;;
67941;SDS011;54731;42.600;23.476;2022-12-10T14:18:24;45.60;;;27.58;;
67941;SDS011;54731;42.600;23.476;2022-12-10T14:20:52;18.97;;;11.43;;
67941;SDS011;54731;42.600;23.476;2022-12-10T14:23:28;35.83;;;17.85;;
67941;SDS011;54731;42.600;23.476;2022-12-10T14:25:55;29.45;;;14.20;;
67941;SDS011;54731;42.600;23.476;2022-12-10T14:28:21;18.03;;;7.23;;
67941;SDS011;54731;42.600;23.476;2022-12-10T14:30:49;23.67;;;9.70;;
67941;SDS011;54731;42.600;23.476;2022-12-10T14:33:16;21.83;;;9.43;;
67941;SDS011;54731;42.600;23.476;2022-12-10T14:35:47;19.92;;;10.45;;
67941;SDS011;54731;42.600;23.476;2022-12-10T14:38:18;50.20;;;17.90;;
67941;SDS011;54731;42.600;23.476;2022-12-10T14:40:45;70.53;;;26.30;;
67941;SDS011;54731;42.600;23.476;2022-12-10T14:43:15;138.18;;;48.83;;
67941;SDS011;54731;42.600;23.476;2022-12-10T14:46:02;22.70;;;9.63;;
67941;SDS011;54731;42.600;23.476;2022-12-10T14:48:28;54.95;;;25.27;;
67941;SDS011;54731;42.600;23.476;2022-12-10T14:50:55;60.15;;;27.30;;
67941;SDS011;54731;42.600;23.476;2022-12-10T14:53:28;21.50;;;9.60;;
67941;SDS011;54731;42.600;23.476;2022-12-10T14:55:53;31.63;;;14.60;;
67941;SDS011;54731;42.600;23.476;2022-12-10T14:58:30;33.40;;;14.60;;
67941;SDS011;54731;42.600;23.476;2022-12-10T15:01:03;27.05;;;9.52;;
67941;SDS011;54731;42.600;23.476;2022-12-10T15:03:30;14.50;;;6.65;;
67941;SDS011;54731;42.600;23.476;2022-12-10T15:05:58;31.35;;;18.50;;
67941;SDS011;54731;42.600;23.476;2022-12-10T15:08:27;18.40;;;11.57;;
67941;SDS011;54731;42.600;23.476;2022-12-10T15:10:57;11.40;;;5.75;;
67941;SDS011;54731;42.600;23.476;2022-12-10T15:13:29;19.23;;;9.93;;
67941;SDS011;54731;42.600;23.476;2022-12-10T15:15:56;20.40;;;10.35;;
67941;SDS011;54731;42.600;23.476;2022-12-10T15:18:37;12.07;;;4.10;;
67941;SDS011;54731;42.600;23.476;2022-12-10T15:21:10;12.57;;;5.05;;
67941;SDS011;54731;42.600;23.476;2022-12-10T15:23:38;19.75;;;5.90;;
67941;SDS011;54731;42.600;23.476;2022-12-10T15:26:09;12.03;;;4.70;;
67941;SDS011;54731;42.600;23.476;2022-12-10T15:28:37;15.75;;;5.90;;
67941;SDS011;54731;42.600;23.476;2022-12-10T15:33:45;7.72;;;4.15;;
67941;SDS011;54731;42.600;23.476;2022-12-10T15:36:20;9.95;;;4.32;;
67941;SDS011;54731;42.600;23.476;2022-12-10T15:38:48;9.77;;;4.15;;
67941;SDS011;54731;42.600;23.476;2022-12-10T15:44:00;14.75;;;4.25;;
67941;SDS011;54731;42.600;23.476;2022-12-10T15:46:28;9.85;;;5.00;;
67941;SDS011;54731;42.600;23.476;2022-12-10T15:48:53;11.00;;;4.90;;
67941;SDS011;54731;42.600;23.476;2022-12-10T15:51:19;12.70;;;6.13;;
67941;SDS011;54731;42.600;23.476;2022-12-10T15:53:44;12.43;;;5.55;;
67941;SDS011;54731;42.600;23.476;2022-12-10T15:56:10;10.97;;;5.00;;
67941;SDS011;54731;42.600;23.476;2022-12-10T15:58:35;15.67;;;6.47;;
67941;SDS011;54731;42.600;23.476;2022-12-10T16:01:00;16.97;;;8.37;;
67941;SDS011;54731;42.600;23.476;2022-12-10T16:03:26;11.73;;;5.20;;
67941;SDS011;54731;42.600;23.476;2022-12-10T16:05:53;12.13;;;5.43;;
67941;SDS011;54731;42.600;23.476;2022-12-10T16:08:25;12.80;;;5.90;;
67941;SDS011;54731;42.600;23.476;2022-12-10T16:10:53;16.25;;;8.18;;
67941;SDS011;54731;42.600;23.476;2022-12-10T16:13:21;20.10;;;9.23;;
67941;SDS011;54731;42.600;23.476;2022-12-10T16:15:53;12.77;;;6.72;;
67941;SDS011;54731;42.600;23.476;2022-12-10T16:18:20;13.95;;;8.48;;
67941;SDS011;54731;42.600;23.476;2022-12-10T16:20:46;16.17;;;7.80;;
67941;SDS011;54731;42.600;23.476;2022-12-10T16:23:11;11.03;;;6.60;;
67941;SDS011;54731;42.600;23.476;2022-12-10T16:25:37;11.07;;;5.90;;
67941;SDS011;54731;42.600;23.476;2022-12-10T16:28:03;13.18;;;8.65;;
67941;SDS011;54731;42.600;23.476;2022-12-10T16:30:37;17.92;;;8.40;;
67941;SDS011;54731;42.600;23.476;2022-12-10T16:33:05;19.30;;;11.80;;
67941;SDS011;54731;42.600;23.476;2022-12-10T16:35:30;12.20;;;5.97;;
67941;SDS011;54731;42.600;23.476;2022-12-10T16:37:56;13.80;;;7.70;;
67941;SDS011;54731;42.600;23.476;2022-12-10T16:40:22;57.80;;;25.52;;
67941;SDS011;54731;42.600;23.476;2022-12-10T16:42:52;102.23;;;33.97;;
67941;SDS011;54731;42.600;23.476;2022-12-10T16:45:19;138.07;;;41.20;;